Time;durP1;ratioP1;P1;durP2;ratioP2;P2;SDS_P1;SDS_P2;PMS_P1;PMS_P2;Temp;Humidity;BMP_temperature;BMP_pressure;BME280_temperature;BME280_humidity;BME280_pressure;Samples;Min_cycle;Max_cycle;Signal;HPM_P1;HPM_P2
2022/04/23 00:10:08;;;;;;;14.13;10.23;;;;;;;;;;4914665;29;20071;-81
2022/04/23 00:16:06;;;;;;;14.18;9.98;;;;;;;;;;4927486;28;20091;-81
2022/04/23 00:19:19;;;;;;;15.55;10.48;;;;;;;;;;4966936;28;20039;-81
2022/04/23 00:22:57;;;;;;;18.20;11.23;;;;;;;;;;4929924;29;20035;-81
2022/04/23 00:33:25;;;;;;;15.70;10.50;;;;;;;;;;4930335;29;20127;-81
2022/04/23 00:47:38;;;;;;;;;;;;;;;;;;;;;
2022/04/23 01:26:03;;;;;;;12.98;9.15;;;;;;;;;;4922765;29;20051;-81
2022/04/23 01:29:22;;;;;;;12.57;8.27;;;;;;;;;;4927044;29;20036;-81
2022/04/23 01:42:42;;;;;;;14.95;8.57;;;;;;;;;;4921465;29;20051;-81
2022/04/23 01:52:14;;;;;;;11.35;8.68;;;;;;;;;;4902827;29;20047;-80
2022/04/23 01:55:30;;;;;;;12.27;9.07;;;;;;;;;;4863515;29;20587;-80
2022/04/23 02:07:59;;;;;;;12.88;9.40;;;;;;;;;;4982489;28;20145;-81
2022/04/23 02:10:25;;;;;;;11.35;8.20;;;;;;;;;;4993485;28;20057;-81
2022/04/23 02:12:50;;;;;;;16.52;9.15;;;;;;;;;;5016003;28;20040;-81
2022/04/23 02:15:16;;;;;;;14.45;9.32;;;;;;;;;;5036202;28;20050;-82
2022/04/23 02:17:43;;;;;;;13.80;8.75;;;;;;;;;;5056906;28;20455;-82
2022/04/23 02:20:15;;;;;;;12.07;8.13;;;;;;;;;;5056559;28;20029;-81
2022/04/23 02:22:40;;;;;;;14.38;8.95;;;;;;;;;;5049169;28;20122;-81
2022/04/23 02:25:06;;;;;;;13.00;8.70;;;;;;;;;;5036333;28;20487;-81
2022/04/23 02:27:42;;;;;;;12.20;7.68;;;;;;;;;;5040407;28;20033;-81
2022/04/23 02:30:08;;;;;;;11.77;7.88;;;;;;;;;;5057229;28;20056;-81
2022/04/23 02:32:34;;;;;;;13.30;9.18;;;;;;;;;;5057842;28;20036;-81
2022/04/23 02:35:00;;;;;;;12.70;8.77;;;;;;;;;;5057067;28;20021;-81
2022/04/23 02:37:32;;;;;;;11.88;8.70;;;;;;;;;;5067578;28;20028;-81
2022/04/23 02:39:57;;;;;;;13.98;8.90;;;;;;;;;;5056291;28;20021;-81
2022/04/23 02:42:23;;;;;;;11.43;8.30;;;;;;;;;;5060471;28;20381;-81
2022/04/23 02:44:50;;;;;;;12.43;8.65;;;;;;;;;;5072054;28;20059;-81
2022/04/23 02:47:16;;;;;;;11.32;7.80;;;;;;;;;;5070303;28;20029;-81
2022/04/23 02:49:42;;;;;;;12.95;8.75;;;;;;;;;;5055251;28;20083;-82
2022/04/23 02:52:15;;;;;;;12.18;8.73;;;;;;;;;;5049907;28;20017;-81
2022/04/23 02:54:40;;;;;;;11.68;8.27;;;;;;;;;;5025588;28;20030;-82
2022/04/23 02:57:05;;;;;;;11.35;7.88;;;;;;;;;;5026583;28;20020;-81
2022/04/23 02:59:31;;;;;;;10.75;8.43;;;;;;;;;;5036346;28;20017;-81
2022/04/23 03:01:56;;;;;;;9.88;7.30;;;;;;;;;;5038102;28;20037;-81
2022/04/23 03:04:27;;;;;;;11.88;7.85;;;;;;;;;;5036776;28;20487;-81
2022/04/23 03:07:16;;;;;;;9.32;7.07;;;;;;;;;;5026582;28;20032;-81
2022/04/23 03:09:42;;;;;;;11.77;8.40;;;;;;;;;;5017234;28;20057;-81
2022/04/23 03:12:09;;;;;;;15.10;8.30;;;;;;;;;;5037148;28;20071;-80
2022/04/23 03:24:06;;;;;;;11.00;7.95;;;;;;;;;;4934659;29;20058;-81
2022/04/23 03:26:43;;;;;;;16.42;8.70;;;;;;;;;;4916351;29;20083;-80
2022/04/23 03:33:06;;;;;;;11.32;8.68;;;;;;;;;;4956085;29;20062;-81
2022/04/23 03:35:32;;;;;;;10.32;8.00;;;;;;;;;;4966906;28;20547;-81
2022/04/23 03:38:17;;;;;;;12.07;8.13;;;;;;;;;;4992734;28;20026;-81
2022/04/23 03:40:43;;;;;;;12.43;8.05;;;;;;;;;;5001414;28;20042;-82
2022/04/23 03:43:09;;;;;;;10.93;7.22;;;;;;;;;;4987306;28;20034;-81
2022/04/23 03:45:36;;;;;;;12.48;9.13;;;;;;;;;;5049083;28;20043;-81
2022/04/23 03:48:02;;;;;;;12.70;8.23;;;;;;;;;;5074179;28;20028;-81
2022/04/23 03:50:28;;;;;;;11.38;7.95;;;;;;;;;;5040724;28;20020;-81
2022/04/23 03:52:59;;;;;;;10.93;8.20;;;;;;;;;;5056469;28;20034;-81
2022/04/23 03:55:31;;;;;;;11.45;8.07;;;;;;;;;;5039278;28;20032;-81
2022/04/23 03:57:56;;;;;;;10.30;7.95;;;;;;;;;;5056241;28;20032;-81
2022/04/23 04:00:24;;;;;;;11.18;8.23;;;;;;;;;;5061141;28;20039;-81
2022/04/23 04:02:54;;;;;;;11.25;8.70;;;;;;;;;;5073919;28;20502;-81
2022/04/23 04:15:34;;;;;;;9.45;6.82;;;;;;;;;;4942361;28;20569;-81
2022/04/23 04:18:01;;;;;;;10.95;8.10;;;;;;;;;;5033204;28;20128;-81
2022/04/23 04:20:26;;;;;;;10.38;7.43;;;;;;;;;;5042376;28;20108;-81
2022/04/23 04:22:52;;;;;;;13.50;7.93;;;;;;;;;;5051346;28;20072;-80
2022/04/23 04:25:18;;;;;;;12.02;8.07;;;;;;;;;;5032458;28;20330;-81
2022/04/23 04:27:44;;;;;;;11.02;7.65;;;;;;;;;;5054104;28;20033;-81
2022/04/23 04:30:11;;;;;;;9.77;7.90;;;;;;;;;;5062423;28;20016;-81
2022/04/23 04:32:36;;;;;;;10.10;7.78;;;;;;;;;;5074226;28;20020;-81
2022/04/23 04:35:02;;;;;;;11.60;8.27;;;;;;;;;;5044746;28;20482;-81
2022/04/23 04:37:28;;;;;;;10.95;7.43;;;;;;;;;;5062281;28;20080;-81
2022/04/23 04:39:53;;;;;;;11.63;8.30;;;;;;;;;;5053724;28;20036;-81
2022/04/23 04:42:18;;;;;;;12.90;7.85;;;;;;;;;;5054292;28;20065;-80
2022/04/23 04:44:44;;;;;;;11.77;8.00;;;;;;;;;;5063185;28;20032;-80
2022/04/23 04:47:09;;;;;;;10.75;8.02;;;;;;;;;;5055849;28;20021;-82
2022/04/23 04:49:39;;;;;;;10.70;7.72;;;;;;;;;;5038388;28;20036;-82
2022/04/23 04:52:05;;;;;;;12.20;8.48;;;;;;;;;;5054408;28;20479;-80
2022/04/23 04:54:30;;;;;;;10.93;8.15;;;;;;;;;;5054768;28;20058;-80
2022/04/23 04:56:56;;;;;;;11.15;8.25;;;;;;;;;;5055380;28;20052;-81
2022/04/23 04:59:22;;;;;;;10.73;8.00;;;;;;;;;;5055653;28;20025;-80
2022/04/23 05:01:51;;;;;;;11.43;8.45;;;;;;;;;;5055855;28;20028;-80
2022/04/23 05:04:17;;;;;;;12.38;9.13;;;;;;;;;;5043284;28;20083;-81
2022/04/23 05:06:43;;;;;;;10.45;7.82;;;;;;;;;;5042561;28;20476;-81
2022/04/23 05:09:08;;;;;;;12.48;8.25;;;;;;;;;;5039536;28;20049;-81
2022/04/23 05:11:33;;;;;;;11.32;8.32;;;;;;;;;;5054918;28;20093;-81
2022/04/23 05:13:59;;;;;;;10.23;7.57;;;;;;;;;;5058751;28;20085;-81
2022/04/23 05:16:24;;;;;;;12.02;8.52;;;;;;;;;;5061663;28;20035;-82
2022/04/23 05:18:52;;;;;;;12.00;7.65;;;;;;;;;;5068478;28;20509;-80
2022/04/23 05:21:20;;;;;;;9.95;7.22;;;;;;;;;;5072507;28;20036;-78
2022/04/23 05:47:31;;;;;;;11.25;8.07;;;;;;;;;;4955639;28;20082;-82
2022/04/23 05:50:02;;;;;;;12.20;8.10;;;;;;;;;;4965036;28;20031;-80
2022/04/23 05:52:28;;;;;;;13.80;8.77;;;;;;;;;;4975239;28;20034;-79
2022/04/23 05:58:43;;;;;;;10.82;7.93;;;;;;;;;;4977737;28;20038;-79
2022/04/23 06:02:01;;;;;;;10.25;8.02;;;;;;;;;;4983174;28;20039;-79
2022/04/23 06:05:22;;;;;;;12.57;8.52;;;;;;;;;;4875314;29;20040;-79
2022/04/23 06:07:48;;;;;;;10.98;7.97;;;;;;;;;;4859004;28;20029;-79
2022/04/23 06:10:13;;;;;;;12.07;8.30;;;;;;;;;;5057559;28;20104;-80
2022/04/23 06:12:39;;;;;;;11.77;8.60;;;;;;;;;;5054838;28;20025;-80
2022/04/23 06:15:05;;;;;;;11.85;7.88;;;;;;;;;;5061003;28;20081;-79
2022/04/23 06:17:30;;;;;;;9.95;7.30;;;;;;;;;;5057427;28;20032;-80
2022/04/23 06:19:56;;;;;;;12.95;8.65;;;;;;;;;;5055216;28;20031;-80
2022/04/23 06:22:22;;;;;;;9.85;6.82;;;;;;;;;;5035722;28;20037;-80
2022/04/23 06:24:48;;;;;;;9.27;7.40;;;;;;;;;;5055996;28;20021;-80
2022/04/23 06:27:13;;;;;;;9.18;6.50;;;;;;;;;;5035096;28;20025;-79
2022/04/23 06:29:39;;;;;;;13.07;8.10;;;;;;;;;;5047098;28;20150;-80
2022/04/23 06:32:05;;;;;;;9.05;6.70;;;;;;;;;;5056540;28;20024;-80
2022/04/23 06:34:43;;;;;;;8.15;6.15;;;;;;;;;;5055695;28;20021;-80
2022/04/23 06:37:08;;;;;;;10.55;6.50;;;;;;;;;;5035584;28;20484;-80
2022/04/23 06:39:34;;;;;;;9.38;5.43;;;;;;;;;;5054322;28;20032;-80
2022/04/23 06:42:00;;;;;;;8.75;6.50;;;;;;;;;;5051534;28;20025;-80
2022/04/23 06:44:25;;;;;;;9.30;6.75;;;;;;;;;;5053145;28;20408;-80
2022/04/23 06:46:50;;;;;;;7.88;6.45;;;;;;;;;;5054783;28;20057;-79
2022/04/23 06:49:16;;;;;;;9.13;6.95;;;;;;;;;;5057943;28;20026;-80
2022/04/23 06:51:41;;;;;;;8.07;5.10;;;;;;;;;;5071521;28;20048;-80
2022/04/23 06:54:07;;;;;;;11.00;6.93;;;;;;;;;;5054149;28;20106;-80
2022/04/23 06:56:33;;;;;;;8.23;5.18;;;;;;;;;;5050317;28;20024;-80
2022/04/23 06:58:59;;;;;;;8.80;5.40;;;;;;;;;;5074252;28;20028;-80
2022/04/23 07:01:24;;;;;;;8.50;6.78;;;;;;;;;;5055548;28;20028;-79
2022/04/23 07:03:50;;;;;;;8.98;5.70;;;;;;;;;;5071843;28;20020;-81
2022/04/23 07:06:18;;;;;;;8.27;6.53;;;;;;;;;;5073486;28;20036;-80
2022/04/23 07:08:44;;;;;;;7.65;5.63;;;;;;;;;;5055947;28;20020;-79
2022/04/23 07:11:12;;;;;;;6.97;5.05;;;;;;;;;;5054772;28;20367;-80
2022/04/23 07:13:38;;;;;;;6.45;5.25;;;;;;;;;;5058309;28;20017;-80
2022/04/23 07:16:05;;;;;;;7.28;5.57;;;;;;;;;;5046965;28;20538;-79
2022/04/23 07:18:31;;;;;;;8.23;5.90;;;;;;;;;;5074478;28;20036;-80
2022/04/23 07:20:57;;;;;;;8.95;5.82;;;;;;;;;;5074770;28;20045;-80
2022/04/23 07:26:06;;;;;;;8.25;5.68;;;;;;;;;;5075931;28;20042;-81
2022/04/23 07:28:32;;;;;;;7.25;5.50;;;;;;;;;;5058006;28;20020;-81
2022/04/23 07:30:57;;;;;;;7.60;5.78;;;;;;;;;;5057641;28;20012;-81
2022/04/23 07:38:57;;;;;;;6.45;4.85;;;;;;;;;;5071428;28;20039;-80
2022/04/23 07:44:25;;;;;;;6.95;4.85;;;;;;;;;;5063330;28;20031;-81
2022/04/23 07:46:52;;;;;;;7.78;5.18;;;;;;;;;;5066907;28;20489;-81
2022/04/23 07:49:30;;;;;;;7.20;4.90;;;;;;;;;;5054441;28;20037;-81
2022/04/23 07:51:56;;;;;;;6.85;4.90;;;;;;;;;;5072767;28;20075;-81
2022/04/23 07:54:22;;;;;;;6.22;4.90;;;;;;;;;;5073024;28;20024;-80
2022/04/23 07:56:48;;;;;;;6.18;4.47;;;;;;;;;;5074044;28;20051;-80
2022/04/23 07:59:13;;;;;;;5.70;4.43;;;;;;;;;;5055360;28;20029;-81
2022/04/23 08:01:39;;;;;;;5.15;3.83;;;;;;;;;;5055633;28;20035;-80
2022/04/23 08:04:05;;;;;;;5.53;4.40;;;;;;;;;;5073254;28;20028;-80
2022/04/23 08:06:31;;;;;;;4.75;4.25;;;;;;;;;;5055283;28;20020;-81
2022/04/23 08:08:56;;;;;;;5.53;3.92;;;;;;;;;;5065198;28;20043;-81
2022/04/23 08:11:24;;;;;;;5.47;3.53;;;;;;;;;;5068434;28;20085;-79
2022/04/23 08:13:50;;;;;;;6.78;4.60;;;;;;;;;;5071314;28;20082;-80
2022/04/23 08:16:16;;;;;;;4.80;4.00;;;;;;;;;;5050881;28;20025;-80
2022/04/23 08:18:42;;;;;;;5.78;4.30;;;;;;;;;;5071357;28;20107;-80
2022/04/23 08:21:07;;;;;;;5.78;4.13;;;;;;;;;;5074240;28;20543;-79
2022/04/23 08:23:33;;;;;;;5.93;4.32;;;;;;;;;;5057491;28;20295;-80
2022/04/23 08:26:00;;;;;;;5.05;4.00;;;;;;;;;;5051052;28;20107;-80
2022/04/23 08:31:12;;;;;;;4.47;3.65;;;;;;;;;;5068697;28;20036;-83
2022/04/23 08:34:02;;;;;;;5.00;3.83;;;;;;;;;;5073357;28;20024;-81
2022/04/23 08:36:29;;;;;;;5.78;4.55;;;;;;;;;;5080381;28;20028;-81
2022/04/23 08:38:59;;;;;;;6.25;4.45;;;;;;;;;;5078130;28;20021;-81
2022/04/23 08:41:28;;;;;;;5.95;4.10;;;;;;;;;;5056095;28;20020;-80
2022/04/23 08:44:21;;;;;;;8.48;4.10;;;;;;;;;;5072472;28;20066;-80
2022/04/23 08:46:48;;;;;;;5.38;3.97;;;;;;;;;;5069838;28;20055;-81
2022/04/23 08:49:15;;;;;;;7.22;4.07;;;;;;;;;;5082619;28;20584;-80
2022/04/23 08:51:43;;;;;;;5.43;4.03;;;;;;;;;;5083828;28;20047;-81
2022/04/23 08:54:13;;;;;;;5.78;4.45;;;;;;;;;;5080373;28;20044;-81
2022/04/23 08:56:42;;;;;;;8.18;4.65;;;;;;;;;;5081210;28;20056;-81
2022/04/23 08:59:10;;;;;;;6.20;4.70;;;;;;;;;;5080182;28;20031;-81
2022/04/23 09:01:37;;;;;;;6.68;4.60;;;;;;;;;;5080898;28;20032;-82
2022/04/23 09:04:04;;;;;;;6.10;4.13;;;;;;;;;;5080173;28;20025;-82
2022/04/23 09:06:41;;;;;;;7.57;4.85;;;;;;;;;;5082227;28;20025;-81
2022/04/23 09:09:15;;;;;;;6.00;4.60;;;;;;;;;;5083795;28;20043;-81
2022/04/23 09:11:50;;;;;;;7.40;5.13;;;;;;;;;;5083859;28;20012;-80
2022/04/23 09:14:32;;;;;;;6.57;4.75;;;;;;;;;;5079942;28;20074;-79
2022/04/23 09:25:37;;;;;;;7.35;4.70;;;;;;;;;;5099375;28;20043;-80
2022/04/23 09:30:35;;;;;;;6.95;4.40;;;;;;;;;;5081610;28;20048;-85
2022/04/23 09:33:01;;;;;;;5.85;4.53;;;;;;;;;;5084001;28;20742;-84
2022/04/23 09:35:27;;;;;;;4.93;3.95;;;;;;;;;;5085030;28;20062;-84
2022/04/23 09:40:36;;;;;;;7.45;4.22;;;;;;;;;;5084131;28;20103;-83
2022/04/23 09:43:05;;;;;;;5.05;3.85;;;;;;;;;;5087221;28;20397;-81
2022/04/23 09:45:32;;;;;;;5.28;3.30;;;;;;;;;;5081937;28;20547;-83
2022/04/23 09:48:03;;;;;;;5.68;3.90;;;;;;;;;;5080967;28;20016;-84
2022/04/23 09:50:36;;;;;;;5.95;4.07;;;;;;;;;;5066518;28;20024;-83
2022/04/23 09:53:18;;;;;;;4.47;3.13;;;;;;;;;;5083941;28;20029;-83
2022/04/23 09:55:45;;;;;;;6.03;3.40;;;;;;;;;;5079633;28;20150;-83
2022/04/23 09:58:12;;;;;;;5.25;3.58;;;;;;;;;;5085154;28;20028;-85
2022/04/23 10:00:42;;;;;;;4.63;3.60;;;;;;;;;;5082571;28;20016;-83
2022/04/23 10:03:09;;;;;;;7.50;3.88;;;;;;;;;;5083338;28;20049;-82
2022/04/23 10:05:40;;;;;;;5.82;3.72;;;;;;;;;;5083798;28;20021;-83
2022/04/23 10:08:16;;;;;;;5.47;3.80;;;;;;;;;;5084647;28;20036;-83
2022/04/23 10:10:56;;;;;;;7.70;3.58;;;;;;;;;;5082131;28;20491;-82
2022/04/23 10:13:23;;;;;;;6.07;3.70;;;;;;;;;;5074764;28;20025;-83
2022/04/23 10:15:53;;;;;;;4.32;3.40;;;;;;;;;;5081881;28;20036;-85
2022/04/23 10:18:20;;;;;;;4.38;3.13;;;;;;;;;;5084156;28;20025;-83
2022/04/23 10:20:58;;;;;;;4.53;3.50;;;;;;;;;;5082728;28;20032;-83
2022/04/23 10:24:05;;;;;;;4.25;3.20;;;;;;;;;;5077970;28;20214;-83
2022/04/23 10:26:48;;;;;;;4.43;3.40;;;;;;;;;;5081748;28;20502;-81
2022/04/23 10:29:19;;;;;;;4.88;3.70;;;;;;;;;;5077109;28;20084;-83
2022/04/23 10:32:11;;;;;;;5.60;3.70;;;;;;;;;;5062612;28;20028;-83
2022/04/23 10:34:37;;;;;;;6.75;3.67;;;;;;;;;;5080252;28;20028;-82
2022/04/23 10:37:22;;;;;;;4.75;3.65;;;;;;;;;;5081983;28;20161;-85
2022/04/23 10:39:51;;;;;;;5.63;4.32;;;;;;;;;;5080713;28;20056;-85
2022/04/23 10:42:18;;;;;;;6.43;3.95;;;;;;;;;;5067544;28;20170;-87
2022/04/23 10:44:46;;;;;;;5.53;3.85;;;;;;;;;;5057939;28;20036;-83
2022/04/23 10:47:30;;;;;;;5.78;4.00;;;;;;;;;;5081181;28;20032;-85
2022/04/23 10:50:15;;;;;;;5.85;3.42;;;;;;;;;;5064589;28;20048;-86
2022/04/23 10:52:41;;;;;;;5.57;4.00;;;;;;;;;;5064400;28;20084;-85
2022/04/23 10:55:07;;;;;;;5.25;4.03;;;;;;;;;;5082901;28;20024;-84
2022/04/23 10:57:34;;;;;;;8.02;3.88;;;;;;;;;;5077345;28;20032;-85
2022/04/23 11:00:15;;;;;;;7.18;4.03;;;;;;;;;;5083290;28;20080;-85
2022/04/23 11:02:41;;;;;;;5.05;3.97;;;;;;;;;;5089382;28;20051;-86
2022/04/23 11:14:36;;;;;;;4.22;3.60;;;;;;;;;;5030367;28;20118;-85
2022/04/23 11:17:02;;;;;;;5.10;3.78;;;;;;;;;;5080241;28;20043;-83
2022/04/23 11:19:28;;;;;;;6.85;4.38;;;;;;;;;;5053020;28;20029;-83
2022/04/23 11:21:54;;;;;;;5.85;4.40;;;;;;;;;;5075820;28;20048;-83
2022/04/23 11:24:20;;;;;;;7.53;4.80;;;;;;;;;;5073874;28;20418;-81
2022/04/23 11:26:46;;;;;;;7.35;4.40;;;;;;;;;;5057587;28;20493;-86
2022/04/23 11:29:13;;;;;;;5.85;4.53;;;;;;;;;;5085832;28;20051;-84
2022/04/23 11:31:39;;;;;;;8.18;4.55;;;;;;;;;;5089674;28;20036;-85
2022/04/23 11:34:05;;;;;;;7.35;4.80;;;;;;;;;;5077093;28;20035;-85
2022/04/23 11:36:32;;;;;;;6.78;4.55;;;;;;;;;;5075858;28;20374;-83
2022/04/23 11:39:08;;;;;;;5.68;4.25;;;;;;;;;;5077521;28;20048;-84
2022/04/23 11:41:42;;;;;;;7.13;4.57;;;;;;;;;;5079578;28;20035;-84
2022/04/23 11:44:20;;;;;;;6.72;5.15;;;;;;;;;;5074783;28;20060;-86
2022/04/23 11:46:51;;;;;;;8.15;5.30;;;;;;;;;;5087956;28;20092;-86
2022/04/23 11:49:30;;;;;;;8.83;5.50;;;;;;;;;;5085206;28;20444;-84
2022/04/23 11:52:11;;;;;;;10.25;4.95;;;;;;;;;;5070289;28;20025;-84
2022/04/23 11:54:42;;;;;;;6.20;4.90;;;;;;;;;;5058200;28;20025;-85
2022/04/23 11:57:10;;;;;;;10.43;4.82;;;;;;;;;;5077519;28;20449;-83
2022/04/23 11:59:40;;;;;;;6.35;4.68;;;;;;;;;;5077451;28;20462;-85
2022/04/23 12:02:28;;;;;;;10.00;5.32;;;;;;;;;;5062356;28;20032;-87
2022/04/23 12:04:55;;;;;;;7.22;5.03;;;;;;;;;;5056356;28;20502;-84
2022/04/23 12:07:22;;;;;;;6.70;4.38;;;;;;;;;;5077856;28;20106;-86
2022/04/23 12:09:52;;;;;;;7.53;5.50;;;;;;;;;;5064784;28;20096;-87
2022/04/23 12:12:22;;;;;;;6.53;4.88;;;;;;;;;;5074087;28;20081;-86
2022/04/23 12:14:55;;;;;;;5.80;4.32;;;;;;;;;;5083994;28;20485;-86
2022/04/23 12:17:31;;;;;;;8.27;5.10;;;;;;;;;;5077365;28;20046;-84
2022/04/23 12:19:58;;;;;;;6.72;4.78;;;;;;;;;;5049453;28;20376;-85
2022/04/23 12:22:32;;;;;;;7.88;5.00;;;;;;;;;;5080754;28;20476;-84
2022/04/23 12:25:12;;;;;;;6.90;4.90;;;;;;;;;;5077508;28;20092;-85
2022/04/23 12:42:12;;;;;;;16.30;5.35;;;;;;;;;;5078309;28;20054;-86
2022/04/23 12:44:44;;;;;;;9.18;4.85;;;;;;;;;;5084143;28;20081;-85
2022/04/23 12:47:13;;;;;;;7.07;4.80;;;;;;;;;;5076435;28;20103;-86
2022/04/23 12:49:50;;;;;;;6.55;5.00;;;;;;;;;;5075541;28;20027;-85
2022/04/23 12:52:23;;;;;;;6.78;4.72;;;;;;;;;;5076801;28;20020;-88
2022/04/23 12:55:21;;;;;;;5.95;4.07;;;;;;;;;;5076350;28;20027;-85
2022/04/23 12:58:02;;;;;;;6.88;5.25;;;;;;;;;;5075033;28;20350;-84
2022/04/23 13:00:32;;;;;;;7.50;5.20;;;;;;;;;;5077882;28;20554;-87
2022/04/23 13:03:04;;;;;;;6.93;4.55;;;;;;;;;;5076452;28;20742;-85
2022/04/23 13:05:30;;;;;;;;;;;;;;;;;;5077499;28;20038;-87
2022/04/23 13:10:39;;;;;;;5.22;4.72;;;;;;;;;;5073952;28;20016;-86
2022/04/23 13:13:09;;;;;;;7.22;5.50;;;;;;;;;;5091650;28;20028;-85
2022/04/23 13:15:35;;;;;;;13.65;6.03;;;;;;;;;;5082166;28;20029;-88
2022/04/23 13:18:02;;;;;;;6.95;5.45;;;;;;;;;;5077485;28;20369;-86
2022/04/23 13:20:27;;;;;;;7.88;5.60;;;;;;;;;;5077655;28;20024;-88
2022/04/23 13:22:53;;;;;;;7.13;5.07;;;;;;;;;;5060332;28;20024;-87
2022/04/23 13:25:19;;;;;;;7.47;5.07;;;;;;;;;;5077250;28;20484;-88
2022/04/23 13:27:44;;;;;;;8.30;5.70;;;;;;;;;;5078951;28;20201;-86
2022/04/23 13:30:11;;;;;;;8.68;5.60;;;;;;;;;;5077786;28;20051;-87
2022/04/23 13:32:39;;;;;;;8.10;5.65;;;;;;;;;;5081452;28;20040;-82
2022/04/23 13:35:07;;;;;;;10.52;5.75;;;;;;;;;;5082650;28;20027;-85
2022/04/23 13:37:32;;;;;;;9.13;6.03;;;;;;;;;;5081693;28;20024;-86
2022/04/23 13:39:58;;;;;;;9.43;6.32;;;;;;;;;;5062949;28;20232;-86
2022/04/23 13:42:28;;;;;;;13.15;5.65;;;;;;;;;;5086747;28;20038;-87
2022/04/23 13:44:55;;;;;;;11.90;6.38;;;;;;;;;;5097764;28;20087;-85
2022/04/23 13:47:20;;;;;;;8.32;5.93;;;;;;;;;;5103713;28;20032;-82
2022/04/23 13:49:47;;;;;;;9.90;6.45;;;;;;;;;;5085142;28;20031;-85
2022/04/23 13:52:12;;;;;;;9.32;6.00;;;;;;;;;;5079246;28;20035;-84
2022/04/23 13:54:38;;;;;;;8.02;5.38;;;;;;;;;;5078334;28;20036;-83
2022/04/23 13:57:04;;;;;;;10.75;6.05;;;;;;;;;;5075238;28;20020;-85
2022/04/23 13:59:30;;;;;;;9.65;5.32;;;;;;;;;;5053909;28;20032;-88
2022/04/23 14:10:09;;;;;;;7.80;5.90;;;;;;;;;;5089861;28;20535;-88
2022/04/23 14:12:34;;;;;;;11.10;6.47;;;;;;;;;;5069573;28;20401;-88
2022/04/23 14:15:00;;;;;;;10.18;6.10;;;;;;;;;;5077728;28;20052;-87
2022/04/23 14:17:27;;;;;;;8.70;6.72;;;;;;;;;;5066322;28;20052;-88
2022/04/23 14:19:53;;;;;;;11.55;6.90;;;;;;;;;;5084516;28;20021;-88
2022/04/23 14:22:18;;;;;;;7.97;6.32;;;;;;;;;;5067185;28;20485;-87
2022/04/23 14:24:45;;;;;;;8.38;6.53;;;;;;;;;;5084827;28;20064;-86
2022/04/23 14:27:10;;;;;;;10.93;7.03;;;;;;;;;;5084078;28;20051;-88
2022/04/23 14:29:36;;;;;;;10.48;6.70;;;;;;;;;;5067445;28;20017;-85
2022/04/23 14:32:02;;;;;;;8.70;6.85;;;;;;;;;;5090997;28;20028;-86
2022/04/23 14:34:27;;;;;;;10.50;7.28;;;;;;;;;;5089762;28;20024;-85
2022/04/23 14:36:53;;;;;;;11.90;6.80;;;;;;;;;;5090659;28;20028;-86
2022/04/23 14:39:18;;;;;;;9.82;6.82;;;;;;;;;;5086196;28;20404;-85
2022/04/23 14:41:44;;;;;;;12.00;6.30;;;;;;;;;;5090671;28;20024;-88
2022/04/23 14:44:10;;;;;;;10.55;6.97;;;;;;;;;;5082538;28;20080;-85
2022/04/23 14:46:35;;;;;;;9.27;6.95;;;;;;;;;;5084270;28;20020;-87
2022/04/23 14:49:01;;;;;;;11.52;6.97;;;;;;;;;;5081048;28;20050;-85
2022/04/23 14:54:10;;;;;;;9.30;6.88;;;;;;;;;;5087501;28;20074;-87
2022/04/23 14:56:37;;;;;;;13.05;7.75;;;;;;;;;;5082251;28;20028;-86
2022/04/23 14:59:03;;;;;;;10.32;7.60;;;;;;;;;;5082255;28;20089;-87
2022/04/23 15:01:28;;;;;;;10.00;6.97;;;;;;;;;;5063323;28;20032;-87
2022/04/23 15:03:54;;;;;;;11.80;7.03;;;;;;;;;;5078423;28;20032;-85
2022/04/23 15:06:21;;;;;;;11.43;8.00;;;;;;;;;;5077362;28;20029;-88
2022/04/23 15:08:47;;;;;;;11.57;8.18;;;;;;;;;;5060407;28;20035;-86
2022/04/23 15:11:12;;;;;;;13.05;8.05;;;;;;;;;;5080507;28;20024;-87
2022/04/23 15:13:38;;;;;;;14.43;8.75;;;;;;;;;;5087449;28;20077;-85
2022/04/23 15:16:04;;;;;;;15.57;8.38;;;;;;;;;;5080833;28;20044;-88
2022/04/23 15:18:30;;;;;;;13.82;8.55;;;;;;;;;;5077275;28;20064;-86
2022/04/23 15:20:56;;;;;;;11.32;8.80;;;;;;;;;;5079180;28;20036;-88
2022/04/23 15:23:21;;;;;;;11.00;7.90;;;;;;;;;;5052439;28;20029;-87
2022/04/23 15:25:47;;;;;;;11.20;8.25;;;;;;;;;;5058078;28;20021;-87
2022/04/23 15:28:14;;;;;;;11.98;8.75;;;;;;;;;;5065271;28;20513;-87
2022/04/23 15:30:40;;;;;;;15.38;9.00;;;;;;;;;;5080078;28;20396;-85
2022/04/23 15:33:05;;;;;;;11.90;7.40;;;;;;;;;;5063336;28;20556;-85
2022/04/23 15:35:31;;;;;;;12.45;8.00;;;;;;;;;;5091600;28;20032;-85
2022/04/23 15:37:56;;;;;;;11.00;8.05;;;;;;;;;;5087596;28;20025;-86
2022/04/23 15:40:24;;;;;;;10.20;7.40;;;;;;;;;;5111567;28;20031;-84
2022/04/23 15:42:49;;;;;;;12.95;8.13;;;;;;;;;;5082962;28;20024;-83
2022/04/23 15:45:15;;;;;;;11.57;8.00;;;;;;;;;;5092735;28;20032;-86
2022/04/23 15:47:41;;;;;;;9.85;7.80;;;;;;;;;;5076430;28;20133;-86
2022/04/23 15:50:07;;;;;;;13.55;7.78;;;;;;;;;;5058506;28;20128;-85
2022/04/23 15:52:32;;;;;;;10.35;7.43;;;;;;;;;;5076228;28;20063;-85
2022/04/23 15:54:58;;;;;;;12.73;7.85;;;;;;;;;;5074621;28;20016;-86
2022/04/23 15:57:23;;;;;;;11.13;7.05;;;;;;;;;;5075734;28;20606;-86
2022/04/23 15:59:49;;;;;;;11.88;7.95;;;;;;;;;;5072482;28;20092;-86
2022/04/23 16:02:14;;;;;;;12.23;7.82;;;;;;;;;;5076980;28;20111;-87
2022/04/23 16:04:39;;;;;;;8.63;6.88;;;;;;;;;;5076074;28;20029;-87
2022/04/23 16:07:05;;;;;;;14.88;8.43;;;;;;;;;;5077140;28;20440;-85
2022/04/23 16:09:34;;;;;;;10.88;7.40;;;;;;;;;;5076574;28;20028;-87
2022/04/23 16:12:00;;;;;;;14.50;8.02;;;;;;;;;;5070502;28;20393;-86
2022/04/23 16:14:25;;;;;;;11.23;8.18;;;;;;;;;;5073554;28;20024;-87
2022/04/23 16:16:51;;;;;;;10.73;8.02;;;;;;;;;;5077240;28;20032;-87
2022/04/23 16:19:16;;;;;;;14.63;7.82;;;;;;;;;;5077687;28;20025;-85
2022/04/23 16:21:42;;;;;;;12.20;8.35;;;;;;;;;;5076737;28;20040;-87
2022/04/23 16:24:08;;;;;;;10.77;7.50;;;;;;;;;;5077012;28;20032;-86
2022/04/23 16:26:34;;;;;;;12.07;8.40;;;;;;;;;;5076784;28;20474;-86
2022/04/23 16:29:00;;;;;;;14.40;8.95;;;;;;;;;;5059938;28;20021;-88
2022/04/23 16:31:26;;;;;;;14.90;8.45;;;;;;;;;;5078265;28;20149;-87
2022/04/23 16:33:52;;;;;;;13.45;7.70;;;;;;;;;;5076862;28;20048;-88
2022/04/23 16:47:17;;;;;;;12.65;8.05;;;;;;;;;;5096398;28;20055;-88
2022/04/23 16:49:43;;;;;;;11.45;8.45;;;;;;;;;;5073862;28;20074;-87
2022/04/23 16:52:09;;;;;;;11.43;7.93;;;;;;;;;;5077321;28;20025;-87
2022/04/23 16:54:34;;;;;;;12.05;8.40;;;;;;;;;;5076209;28;20077;-87
2022/04/23 16:56:59;;;;;;;14.00;9.00;;;;;;;;;;5075935;28;20394;-85
2022/04/23 16:59:25;;;;;;;10.63;8.07;;;;;;;;;;5057290;28;20082;-85
2022/04/23 17:01:51;;;;;;;13.93;8.32;;;;;;;;;;5075875;28;20082;-86
2022/04/23 17:04:17;;;;;;;14.05;8.20;;;;;;;;;;5073476;28;20640;-84
2022/04/23 17:06:43;;;;;;;12.80;8.18;;;;;;;;;;5077574;28;20029;-84
2022/04/23 17:09:08;;;;;;;11.57;8.15;;;;;;;;;;5077806;28;20409;-84
2022/04/23 17:11:34;;;;;;;12.20;7.63;;;;;;;;;;5090146;28;20031;-88
2022/04/23 17:13:59;;;;;;;11.18;7.00;;;;;;;;;;5079453;28;20135;-88
2022/04/23 17:16:25;;;;;;;14.07;8.82;;;;;;;;;;5079834;28;20397;-85
2022/04/23 17:18:52;;;;;;;14.40;8.35;;;;;;;;;;5064313;28;20016;-88
2022/04/23 17:21:18;;;;;;;14.40;9.45;;;;;;;;;;5080599;28;20398;-86
2022/04/23 17:23:43;;;;;;;12.60;8.65;;;;;;;;;;5080616;28;20042;-85
2022/04/23 17:26:09;;;;;;;13.20;8.82;;;;;;;;;;5079045;28;20020;-87
2022/04/23 17:28:34;;;;;;;13.52;8.80;;;;;;;;;;5078497;28;20035;-85
2022/04/23 17:31:00;;;;;;;13.70;9.10;;;;;;;;;;5061628;28;20024;-86
2022/04/23 17:33:25;;;;;;;15.23;9.68;;;;;;;;;;5078915;28;20028;-86
2022/04/23 17:35:51;;;;;;;12.98;8.70;;;;;;;;;;5078439;28;20037;-87
2022/04/23 17:41:00;;;;;;;13.55;9.32;;;;;;;;;;5083813;28;20048;-85
2022/04/23 17:43:25;;;;;;;15.50;8.65;;;;;;;;;;5089894;28;20521;-86
2022/04/23 17:45:51;;;;;;;14.02;10.30;;;;;;;;;;5077115;28;20028;-87
2022/04/23 17:48:16;;;;;;;12.80;9.32;;;;;;;;;;5070563;22;20041;-82
2022/04/23 17:50:41;;;;;;;13.05;9.57;;;;;;;;;;5042578;28;20029;-81
2022/04/23 17:53:08;;;;;;;12.13;9.30;;;;;;;;;;5042321;28;20029;-81
2022/04/23 17:55:33;;;;;;;14.65;9.38;;;;;;;;;;5042386;28;20025;-82
2022/04/23 17:57:59;;;;;;;12.82;8.75;;;;;;;;;;5043219;28;20033;-81
2022/04/23 18:08:38;;;;;;;12.65;9.30;;;;;;;;;;5041974;28;20056;-79
2022/04/23 18:11:03;;;;;;;15.23;8.88;;;;;;;;;;5035647;28;20021;-80
2022/04/23 18:13:29;;;;;;;11.65;8.73;;;;;;;;;;5031067;28;20037;-80
2022/04/23 18:15:55;;;;;;;13.32;9.18;;;;;;;;;;5018215;28;20022;-79
2022/04/23 18:18:21;;;;;;;12.75;9.18;;;;;;;;;;5013883;28;20479;-79
2022/04/23 18:20:46;;;;;;;11.98;9.07;;;;;;;;;;5023118;28;20036;-79
2022/04/23 18:23:12;;;;;;;14.30;9.27;;;;;;;;;;5023026;28;20066;-80
2022/04/23 18:25:38;;;;;;;11.75;8.95;;;;;;;;;;5022313;28;20026;-81
2022/04/23 18:28:04;;;;;;;14.60;9.48;;;;;;;;;;5025841;28;20017;-80
2022/04/23 18:30:29;;;;;;;13.63;9.73;;;;;;;;;;5023407;28;20491;-80
2022/04/23 18:32:55;;;;;;;13.80;9.55;;;;;;;;;;5006391;28;20030;-77
2022/04/23 18:35:21;;;;;;;13.18;9.85;;;;;;;;;;5037269;28;20121;-80
2022/04/23 18:37:46;;;;;;;13.73;9.43;;;;;;;;;;5025518;28;20506;-80
2022/04/23 18:40:15;;;;;;;13.18;9.38;;;;;;;;;;5021681;28;20018;-80